Time;durP1;ratioP1;P1;durP2;ratioP2;P2;SDS_P1;SDS_P2;PMS_P1;PMS_P2;Temp;Humidity;BMP_temperature;BMP_pressure;BME280_temperature;BME280_humidity;BME280_pressure;Samples;Min_cycle;Max_cycle;Signal;HPM_P1;HPM_P2
2023/06/02 00:01:35;;;;;;;3.30;3.00;;;18.10;99.90;;;;;;5093763;28;20214;-75
2023/06/02 00:04:03;;;;;;;3.22;2.92;;;18.00;99.90;;;;;;5095846;28;20190;-76
2023/06/02 00:06:32;;;;;;;3.50;3.20;;;18.00;99.90;;;;;;5093808;28;20213;-75
2023/06/02 00:09:00;;;;;;;3.88;3.28;;;18.00;99.90;;;;;;5096307;28;20198;-75
2023/06/02 00:11:27;;;;;;;3.50;3.20;;;18.00;99.90;;;;;;5119796;27;20258;-76
2023/06/02 00:13:54;;;;;;;3.50;3.20;;;18.00;99.90;;;;;;5114562;28;20730;-76
2023/06/02 00:16:23;;;;;;;3.65;3.35;;;18.00;99.90;;;;;;5116370;28;20227;-76
2023/06/02 00:18:52;;;;;;;3.50;3.20;;;18.00;99.90;;;;;;5099149;28;20279;-76
2023/06/02 00:21:20;;;;;;;3.70;3.40;;;18.00;99.90;;;;;;5098568;28;20327;-77
2023/06/02 00:23:48;;;;;;;3.53;3.22;;;18.00;99.90;;;;;;5097333;28;20193;-75
2023/06/02 00:26:15;;;;;;;3.50;3.22;;;17.90;99.90;;;;;;5099330;28;20689;-74
2023/06/02 00:28:42;;;;;;;4.53;3.67;;;17.90;99.90;;;;;;5092148;28;20193;-75
2023/06/02 00:31:10;;;;;;;3.30;3.00;;;17.80;99.90;;;;;;5096687;28;20225;-77
2023/06/02 00:33:38;;;;;;;3.70;3.40;;;17.80;99.90;;;;;;5097572;27;20213;-76
2023/06/02 00:36:06;;;;;;;3.67;3.38;;;17.80;99.90;;;;;;5097023;27;20204;-76
2023/06/02 00:38:32;;;;;;;3.65;3.33;;;17.80;99.90;;;;;;5096125;27;20197;-75
2023/06/02 00:40:59;;;;;;;3.47;3.25;;;17.70;99.90;;;;;;5095060;28;20221;-75
2023/06/02 00:43:26;;;;;;;3.40;3.20;;;17.70;99.90;;;;;;5099937;27;20245;-76
2023/06/02 00:45:53;;;;;;;3.38;3.13;;;17.80;99.90;;;;;;5092388;28;20204;-75
2023/06/02 00:48:20;;;;;;;3.28;3.08;;;17.70;99.90;;;;;;5094706;27;20295;-76
2023/06/02 00:50:49;;;;;;;4.82;3.08;;;17.80;99.90;;;;;;5096506;27;20316;-75
2023/06/02 00:53:16;;;;;;;3.33;3.13;;;17.80;99.90;;;;;;5094894;28;20304;-74
2023/06/02 00:55:43;;;;;;;3.78;3.47;;;17.70;99.90;;;;;;5094457;28;20221;-75
2023/06/02 00:58:13;;;;;;;3.88;3.17;;;17.70;99.90;;;;;;5095284;28;20209;-76
2023/06/02 01:00:40;;;;;;;3.03;2.83;;;17.60;99.90;;;;;;5095971;27;20248;-75
2023/06/02 01:03:08;;;;;;;3.80;3.50;;;17.60;99.90;;;;;;5096355;28;20670;-75
2023/06/02 01:05:36;;;;;;;3.33;3.08;;;17.60;99.90;;;;;;5097864;28;20208;-75
2023/06/02 01:08:07;;;;;;;3.53;3.22;;;17.50;99.90;;;;;;5101331;28;20201;-75
2023/06/02 01:10:36;;;;;;;3.85;3.55;;;17.50;99.90;;;;;;5095692;27;20271;-76
2023/06/02 01:13:03;;;;;;;3.72;3.22;;;17.50;99.90;;;;;;5112632;27;20315;-77
2023/06/02 01:15:31;;;;;;;3.60;3.30;;;17.50;99.90;;;;;;5105193;27;20219;-75
2023/06/02 01:17:59;;;;;;;3.88;3.30;;;17.40;99.90;;;;;;5097395;28;20199;-75
2023/06/02 01:20:28;;;;;;;3.38;3.08;;;17.40;99.90;;;;;;5096679;27;20217;-75
2023/06/02 01:23:04;;;;;;;3.17;2.88;;;17.40;99.90;;;;;;5094073;28;20228;-75
2023/06/02 01:25:32;;;;;;;3.47;3.17;;;17.40;99.90;;;;;;5094679;28;20232;-76
2023/06/02 01:28:02;;;;;;;3.53;3.20;;;17.40;99.90;;;;;;5093319;27;20613;-75
2023/06/02 01:30:31;;;;;;;3.53;3.30;;;17.40;99.90;;;;;;5093682;27;20221;-75
2023/06/02 01:33:08;;;;;;;3.25;2.97;;;17.40;99.90;;;;;;5096938;28;20714;-75
2023/06/02 01:35:43;;;;;;;4.10;3.80;;;17.30;99.90;;;;;;5093173;27;20635;-76
2023/06/02 01:38:11;;;;;;;3.53;3.22;;;17.30;99.90;;;;;;5095886;28;20208;-75
2023/06/02 01:40:39;;;;;;;3.50;3.15;;;17.30;99.90;;;;;;5091238;28;20226;-76
2023/06/02 01:43:07;;;;;;;3.55;3.25;;;17.30;99.90;;;;;;5095679;28;20725;-75
2023/06/02 01:45:35;;;;;;;3.22;2.92;;;17.20;99.90;;;;;;5095281;28;20240;-75
2023/06/02 01:48:04;;;;;;;3.53;3.22;;;17.20;99.90;;;;;;5091557;28;20289;-75
2023/06/02 01:50:31;;;;;;;3.40;3.10;;;17.20;99.90;;;;;;5095199;28;20216;-75
2023/06/02 01:52:58;;;;;;;3.63;3.33;;;17.20;99.90;;;;;;5095152;27;20224;-76
2023/06/02 01:55:25;;;;;;;3.58;3.28;;;17.20;99.90;;;;;;5094702;27;20197;-76
2023/06/02 01:57:53;;;;;;;3.40;3.10;;;17.20;99.90;;;;;;5095037;27;20281;-75
2023/06/02 02:00:21;;;;;;;3.17;2.88;;;17.10;99.90;;;;;;5097884;28;20228;-75
2023/06/02 02:02:48;;;;;;;3.47;3.20;;;17.10;99.90;;;;;;5092696;28;20815;-76
2023/06/02 02:05:15;;;;;;;3.90;3.55;;;17.00;99.90;;;;;;5089551;28;20846;-75
2023/06/02 02:07:43;;;;;;;3.55;3.22;;;17.00;99.90;;;;;;5096140;28;20201;-75
2023/06/02 02:10:11;;;;;;;3.72;3.40;;;17.00;99.90;;;;;;5096308;28;20229;-75
2023/06/02 02:12:38;;;;;;;3.22;3.03;;;17.00;99.90;;;;;;5093744;28;20201;-75
2023/06/02 02:15:09;;;;;;;3.30;3.10;;;16.90;99.90;;;;;;5090980;28;20354;-75
2023/06/02 02:17:44;;;;;;;3.25;3.05;;;16.90;99.90;;;;;;5093458;28;20718;-76
2023/06/02 02:20:13;;;;;;;3.83;3.53;;;16.90;99.90;;;;;;5095252;28;20230;-76
2023/06/02 02:22:41;;;;;;;3.67;3.35;;;16.90;99.90;;;;;;5089644;28;20240;-76
2023/06/02 02:25:08;;;;;;;3.85;3.55;;;16.90;99.90;;;;;;5096032;28;20193;-76
2023/06/02 02:27:36;;;;;;;3.88;3.55;;;16.80;99.90;;;;;;5091745;28;20284;-75
2023/06/02 02:30:03;;;;;;;3.88;3.58;;;16.80;99.90;;;;;;5100170;28;20305;-76
2023/06/02 02:32:34;;;;;;;3.60;3.30;;;16.80;99.90;;;;;;5091890;28;20786;-76
2023/06/02 02:35:01;;;;;;;3.40;3.15;;;16.80;99.90;;;;;;5092188;28;20213;-75
2023/06/02 02:37:28;;;;;;;3.28;2.97;;;16.80;99.90;;;;;;5094775;28;20212;-76
2023/06/02 02:39:55;;;;;;;3.78;3.47;;;16.80;99.90;;;;;;5096198;28;20274;-75
2023/06/02 02:42:23;;;;;;;3.67;3.38;;;16.70;99.90;;;;;;5092100;28;20216;-74
2023/06/02 02:44:50;;;;;;;3.22;3.03;;;16.70;99.90;;;;;;5091460;28;20198;-76
2023/06/02 02:47:16;;;;;;;4.05;3.38;;;16.70;99.90;;;;;;5097409;28;20225;-76
2023/06/02 02:49:46;;;;;;;3.30;3.10;;;16.70;99.90;;;;;;5096412;27;20190;-75
2023/06/02 02:52:13;;;;;;;3.55;3.25;;;16.70;99.90;;;;;;5092281;27;20790;-75
2023/06/02 02:54:40;;;;;;;3.65;3.35;;;16.60;99.90;;;;;;5095425;28;20219;-74
2023/06/02 02:57:08;;;;;;;3.53;3.22;;;16.60;99.90;;;;;;5094470;28;20208;-77
2023/06/02 02:59:35;;;;;;;3.70;3.40;;;16.50;99.90;;;;;;5096543;28;20200;-77
2023/06/02 03:02:03;;;;;;;4.03;3.72;;;16.40;99.90;;;;;;5090158;28;20781;-77
2023/06/02 03:04:31;;;;;;;4.13;3.78;;;16.30;99.90;;;;;;5104116;28;20221;-78
2023/06/02 03:07:01;;;;;;;3.53;3.22;;;16.30;99.90;;;;;;5094222;28;20283;-75
2023/06/02 03:09:28;;;;;;;3.63;3.33;;;16.30;99.90;;;;;;5088609;28;20207;-76
2023/06/02 03:11:57;;;;;;;3.55;3.30;;;16.40;99.90;;;;;;5091726;28;20232;-76
2023/06/02 03:14:26;;;;;;;3.53;3.33;;;16.40;99.90;;;;;;5094709;28;20213;-75
2023/06/02 03:16:54;;;;;;;3.22;3.00;;;16.40;99.90;;;;;;5089412;28;20220;-75
2023/06/02 03:19:23;;;;;;;3.50;3.20;;;16.40;99.90;;;;;;5097213;28;20243;-75
2023/06/02 03:21:51;;;;;;;3.55;3.25;;;16.40;99.90;;;;;;5093544;28;20221;-77
2023/06/02 03:24:21;;;;;;;3.80;2.95;;;16.40;99.90;;;;;;5095884;28;20197;-76
2023/06/02 03:26:48;;;;;;;3.60;3.30;;;16.40;99.90;;;;;;5093097;28;20197;-75
2023/06/02 03:29:15;;;;;;;3.30;3.03;;;16.40;99.90;;;;;;5092492;28;20209;-77
2023/06/02 03:31:42;;;;;;;3.33;3.13;;;16.30;99.90;;;;;;5096012;28;20273;-76
2023/06/02 03:34:09;;;;;;;3.17;2.97;;;16.30;99.90;;;;;;5093530;28;20209;-76
2023/06/02 03:36:37;;;;;;;3.42;3.13;;;16.30;99.90;;;;;;5095649;28;20200;-76
2023/06/02 03:39:06;;;;;;;3.60;3.30;;;16.30;99.90;;;;;;5090656;28;20284;-76
2023/06/02 03:41:35;;;;;;;3.65;3.35;;;16.40;99.90;;;;;;5091273;28;20309;-76
2023/06/02 03:44:02;;;;;;;3.38;3.13;;;16.40;99.90;;;;;;5091135;28;20259;-76
2023/06/02 03:46:29;;;;;;;3.35;3.15;;;16.30;99.90;;;;;;5092509;28;20231;-75
2023/06/02 03:48:56;;;;;;;3.33;2.97;;;16.30;99.90;;;;;;5091535;28;20788;-76
2023/06/02 03:51:23;;;;;;;3.28;3.08;;;16.20;99.90;;;;;;5098359;28;20252;-76
2023/06/02 03:53:50;;;;;;;3.47;3.20;;;16.20;99.90;;;;;;5091897;28;20299;-76
2023/06/02 03:56:17;;;;;;;3.70;3.40;;;16.20;99.90;;;;;;5093435;28;20880;-76
2023/06/02 03:58:46;;;;;;;3.35;3.13;;;16.30;99.90;;;;;;5094778;28;20233;-77
2023/06/02 04:01:13;;;;;;;4.00;3.70;;;16.30;99.90;;;;;;5095327;28;20300;-77
2023/06/02 04:03:42;;;;;;;3.20;3.00;;;16.20;99.90;;;;;;5091838;28;20197;-77
2023/06/02 04:06:09;;;;;;;4.03;3.72;;;16.10;99.90;;;;;;5092474;28;20201;-77
2023/06/02 04:08:37;;;;;;;3.42;3.22;;;16.10;99.90;;;;;;5096259;28;20953;-78
2023/06/02 04:11:04;;;;;;;3.25;3.05;;;16.10;99.90;;;;;;5093631;28;20267;-76
2023/06/02 04:13:31;;;;;;;4.00;3.42;;;16.10;99.90;;;;;;5093947;28;20262;-76
2023/06/02 04:15:59;;;;;;;3.35;3.10;;;16.20;99.90;;;;;;5096080;28;20221;-76
2023/06/02 04:18:27;;;;;;;3.60;3.30;;;16.30;99.90;;;;;;5095141;28;20236;-75
2023/06/02 04:20:54;;;;;;;3.95;3.65;;;16.40;99.90;;;;;;5092895;28;20241;-77
2023/06/02 04:23:21;;;;;;;3.40;3.10;;;16.50;99.90;;;;;;5097836;27;20288;-76
2023/06/02 04:25:48;;;;;;;3.58;3.33;;;16.50;99.90;;;;;;5096492;28;20250;-75
2023/06/02 04:28:16;;;;;;;3.88;3.58;;;16.60;99.90;;;;;;5095642;27;20200;-76
2023/06/02 04:30:43;;;;;;;3.85;3.55;;;16.70;99.90;;;;;;5098640;28;20224;-77
2023/06/02 04:33:13;;;;;;;3.60;3.30;;;16.70;99.90;;;;;;5092267;27;20293;-76
2023/06/02 04:35:39;;;;;;;3.22;2.92;;;16.80;99.90;;;;;;5099693;28;20213;-75
2023/06/02 04:38:07;;;;;;;3.50;3.20;;;16.90;99.90;;;;;;5093237;28;20699;-75
2023/06/02 04:40:35;;;;;;;3.63;3.38;;;17.00;99.90;;;;;;5094812;27;20217;-76
2023/06/02 04:43:02;;;;;;;3.50;3.20;;;17.00;99.90;;;;;;5095878;28;20699;-76
2023/06/02 04:45:29;;;;;;;3.90;3.60;;;17.00;99.90;;;;;;5100891;28;20773;-76
2023/06/02 04:47:56;;;;;;;3.45;3.25;;;17.00;99.90;;;;;;5093992;28;20229;-76
2023/06/02 04:50:25;;;;;;;3.40;3.10;;;17.00;99.90;;;;;;5097258;27;20727;-76
2023/06/02 04:52:52;;;;;;;3.65;3.35;;;17.00;99.90;;;;;;5096298;28;20200;-75
2023/06/02 04:55:19;;;;;;;3.17;2.95;;;17.00;99.90;;;;;;5106861;28;20417;-78
2023/06/02 04:57:46;;;;;;;3.70;3.40;;;17.10;99.90;;;;;;5100937;28;20223;-76
2023/06/02 05:00:14;;;;;;;3.67;3.38;;;17.20;99.90;;;;;;5097203;27;20699;-78
2023/06/02 05:02:41;;;;;;;3.78;3.47;;;17.30;99.90;;;;;;5092589;28;20197;-77
2023/06/02 05:05:08;;;;;;;3.83;3.53;;;17.50;99.90;;;;;;5100937;27;20238;-78
2023/06/02 05:07:37;;;;;;;3.95;3.63;;;17.60;99.90;;;;;;5099810;28;20229;-79
2023/06/02 05:10:04;;;;;;;4.35;3.95;;;17.60;99.90;;;;;;5096317;28;20844;-78
2023/06/02 05:12:32;;;;;;;3.40;3.20;;;17.70;99.90;;;;;;5094063;28;20198;-78
2023/06/02 05:14:58;;;;;;;3.72;3.42;;;17.90;99.90;;;;;;5094781;27;20395;-78
2023/06/02 05:17:28;;;;;;;4.00;3.60;;;18.00;99.90;;;;;;5097437;28;20280;-78
2023/06/02 05:19:55;;;;;;;3.88;3.47;;;18.10;99.90;;;;;;5089434;27;20229;-80
2023/06/02 05:22:22;;;;;;;3.65;3.35;;;18.30;99.90;;;;;;5100084;27;20752;-77
2023/06/02 05:24:50;;;;;;;4.15;3.80;;;18.40;99.90;;;;;;5096667;27;20212;-77
2023/06/02 05:27:17;;;;;;;5.22;3.60;;;18.40;99.90;;;;;;5097319;27;20668;-78
2023/06/02 05:29:44;;;;;;;4.78;4.38;;;18.20;99.90;;;;;;5093397;28;20240;-78
2023/06/02 05:32:11;;;;;;;3.85;3.45;;;18.10;99.90;;;;;;5100184;28;20254;-79
2023/06/02 05:34:39;;;;;;;3.95;3.65;;;18.10;99.90;;;;;;5094844;28;20217;-77
2023/06/02 05:37:06;;;;;;;3.50;3.20;;;18.00;99.90;;;;;;5097283;28;20798;-78
2023/06/02 05:39:33;;;;;;;3.47;3.17;;;18.00;99.90;;;;;;5098398;28;20213;-77
2023/06/02 05:42:02;;;;;;;3.90;3.28;;;18.00;99.90;;;;;;5096411;28;20674;-77
2023/06/02 05:44:29;;;;;;;4.13;3.83;;;18.00;99.90;;;;;;5098701;28;20602;-78
2023/06/02 05:46:56;;;;;;;4.05;3.42;;;17.90;99.90;;;;;;5096339;27;20205;-78
2023/06/02 05:49:23;;;;;;;3.92;3.63;;;18.00;99.90;;;;;;5097598;27;20235;-79
2023/06/02 05:51:50;;;;;;;3.28;2.97;;;18.10;99.90;;;;;;5097620;28;20245;-78
2023/06/02 05:54:17;;;;;;;3.60;3.30;;;18.20;99.90;;;;;;5101236;27;20193;-78
2023/06/02 05:56:44;;;;;;;3.63;3.33;;;18.40;99.90;;;;;;5090402;28;20804;-78
2023/06/02 05:59:12;;;;;;;4.10;3.63;;;18.40;99.90;;;;;;5103849;27;20246;-78
2023/06/02 06:01:39;;;;;;;4.28;3.90;;;18.50;99.90;;;;;;5102798;27;20652;-78
2023/06/02 06:04:06;;;;;;;5.07;4.00;;;18.60;99.90;;;;;;5099590;27;20232;-77
2023/06/02 06:06:33;;;;;;;4.40;4.00;;;18.60;99.90;;;;;;5095351;28;20760;-77
2023/06/02 06:09:00;;;;;;;4.82;4.43;;;18.70;99.90;;;;;;5102565;27;20195;-79
2023/06/02 06:11:27;;;;;;;4.53;4.13;;;18.80;99.90;;;;;;5096897;28;20229;-78
2023/06/02 06:13:54;;;;;;;5.55;4.38;;;19.00;99.90;;;;;;5098160;27;20260;-78
2023/06/02 06:16:22;;;;;;;4.00;3.63;;;19.20;99.90;;;;;;5096647;27;20754;-78
2023/06/02 06:18:49;;;;;;;4.40;4.00;;;19.30;99.90;;;;;;5094437;28;20487;-77
2023/06/02 06:21:16;;;;;;;4.47;3.90;;;19.40;99.90;;;;;;5099252;27;20228;-79
2023/06/02 06:23:43;;;;;;;4.70;4.20;;;19.50;99.90;;;;;;5103762;28;20208;-79
2023/06/02 06:26:10;;;;;;;4.25;3.95;;;19.60;99.90;;;;;;5100039;27;20697;-77
2023/06/02 06:28:37;;;;;;;5.00;3.72;;;19.70;99.90;;;;;;5096242;28;20231;-78
2023/06/02 06:31:04;;;;;;;4.00;3.70;;;19.80;99.90;;;;;;5097479;28;20232;-78
2023/06/02 06:33:32;;;;;;;4.00;3.60;;;19.80;99.90;;;;;;5098431;28;20258;-77
2023/06/02 06:35:59;;;;;;;4.28;3.97;;;19.90;99.90;;;;;;5096946;28;20209;-78
2023/06/02 06:38:26;;;;;;;5.40;4.20;;;20.10;99.90;;;;;;5095321;28;20224;-78
2023/06/02 06:40:53;;;;;;;4.78;4.28;;;20.30;99.90;;;;;;5097557;27;20221;-77
2023/06/02 06:43:20;;;;;;;4.35;3.92;;;20.50;99.90;;;;;;5092033;28;20293;-78
2023/06/02 06:45:47;;;;;;;5.28;4.18;;;20.60;99.90;;;;;;5100850;28;20247;-79
2023/06/02 06:48:14;;;;;;;4.05;3.67;;;20.60;99.90;;;;;;5116830;28;20213;-78
2023/06/02 06:50:42;;;;;;;5.28;3.67;;;20.40;99.90;;;;;;5101868;28;20276;-78
2023/06/02 06:53:11;;;;;;;4.43;4.10;;;20.40;99.90;;;;;;5098789;28;20282;-78
2023/06/02 06:55:38;;;;;;;3.92;3.63;;;20.40;99.90;;;;;;5095085;28;20212;-78
2023/06/02 06:58:05;;;;;;;4.93;4.43;;;20.20;99.90;;;;;;5093934;28;20221;-78
2023/06/02 07:00:32;;;;;;;4.63;4.22;;;20.10;99.90;;;;;;5096087;28;20217;-79
2023/06/02 07:02:59;;;;;;;4.72;4.32;;;20.20;99.90;;;;;;5096892;28;20284;-78
2023/06/02 07:05:26;;;;;;;4.88;4.47;;;20.20;99.90;;;;;;5092948;28;20620;-78
2023/06/02 07:07:54;;;;;;;4.00;3.70;;;20.20;99.90;;;;;;5095525;28;20225;-78
2023/06/02 07:10:21;;;;;;;4.90;4.45;;;20.20;99.90;;;;;;5099065;28;20237;-78
2023/06/02 07:12:48;;;;;;;4.97;4.47;;;20.30;99.90;;;;;;5096057;28;20197;-79
2023/06/02 07:15:16;;;;;;;4.40;4.00;;;20.40;99.90;;;;;;5093996;28;20713;-78
2023/06/02 07:17:43;;;;;;;4.65;4.07;;;20.50;99.90;;;;;;5099703;28;20353;-79
2023/06/02 07:20:11;;;;;;;7.72;4.18;;;20.70;99.90;;;;;;5096867;28;20260;-78
2023/06/02 07:22:39;;;;;;;8.45;4.43;;;20.80;99.90;;;;;;5094887;28;20221;-78
2023/06/02 07:25:08;;;;;;;4.65;4.25;;;20.80;99.90;;;;;;5098263;28;20253;-78
2023/06/02 07:27:35;;;;;;;4.50;4.10;;;20.90;99.90;;;;;;5092339;28;20570;-78
2023/06/02 07:30:03;;;;;;;4.85;4.35;;;21.00;99.90;;;;;;5097271;28;20232;-77
2023/06/02 07:32:30;;;;;;;6.40;4.55;;;21.20;99.90;;;;;;5097254;28;20548;-78
2023/06/02 07:34:57;;;;;;;4.60;4.20;;;21.20;99.90;;;;;;5098023;28;20568;-78
2023/06/02 07:37:24;;;;;;;4.43;4.03;;;21.30;99.90;;;;;;5100185;28;20235;-78
2023/06/02 07:39:51;;;;;;;4.57;4.18;;;21.30;99.90;;;;;;5095146;28;20271;-77
2023/06/02 07:42:21;;;;;;;4.50;4.10;;;21.30;99.90;;;;;;5100897;28;20212;-78
2023/06/02 07:44:48;;;;;;;4.63;4.20;;;21.40;99.90;;;;;;5103188;28;20251;-77
2023/06/02 07:47:15;;;;;;;4.32;4.03;;;21.70;99.90;;;;;;5097210;28;20212;-78
2023/06/02 07:49:42;;;;;;;4.45;4.13;;;22.10;99.90;;;;;;5096229;28;20882;-78
2023/06/02 07:52:09;;;;;;;4.47;4.10;;;22.30;99.90;;;;;;5099719;27;20228;-77
2023/06/02 07:54:36;;;;;;;4.63;4.25;;;22.30;99.90;;;;;;5103016;28;20204;-78
2023/06/02 07:57:03;;;;;;;4.43;4.03;;;22.30;99.90;;;;;;5104122;28;20241;-78
2023/06/02 07:59:31;;;;;;;5.30;4.43;;;22.50;99.90;;;;;;5097885;28;20228;-78
2023/06/02 08:01:58;;;;;;;5.07;4.68;;;22.70;99.90;;;;;;5100874;28;20848;-78
2023/06/02 08:04:27;;;;;;;4.82;4.32;;;22.70;99.90;;;;;;5097042;28;20264;-78
2023/06/02 08:06:55;;;;;;;6.07;3.97;;;22.70;99.90;;;;;;5098939;27;20227;-78
2023/06/02 08:09:22;;;;;;;4.95;4.30;;;22.70;99.90;;;;;;5103923;27;20205;-78
2023/06/02 08:11:50;;;;;;;4.35;4.03;;;22.60;99.90;;;;;;5103030;28;20225;-78
2023/06/02 08:14:17;;;;;;;4.20;3.80;;;22.60;99.90;;;;;;5109943;28;20205;-78
2023/06/02 08:16:46;;;;;;;4.38;3.80;;;22.70;99.90;;;;;;5114673;28;20278;-77
2023/06/02 08:19:14;;;;;;;4.22;3.83;;;23.00;99.90;;;;;;5100053;28;20194;-77
2023/06/02 08:21:42;;;;;;;4.13;3.78;;;22.90;99.90;;;;;;5095800;28;20221;-77
2023/06/02 08:24:09;;;;;;;4.22;3.83;;;23.00;99.90;;;;;;5099180;28;20198;-78
2023/06/02 08:26:39;;;;;;;5.05;4.57;;;23.20;99.90;;;;;;5100823;28;20196;-78
2023/06/02 08:29:08;;;;;;;4.65;4.25;;;23.30;99.90;;;;;;5099188;28;20193;-78
2023/06/02 08:31:36;;;;;;;4.20;3.90;;;23.50;99.90;;;;;;5101656;28;20221;-77
2023/06/02 08:34:05;;;;;;;4.15;3.75;;;23.70;99.90;;;;;;5096843;27;20276;-78
2023/06/02 08:36:33;;;;;;;4.20;3.80;;;24.00;99.90;;;;;;5103260;28;20217;-79
2023/06/02 08:39:05;;;;;;;4.28;3.83;;;24.20;99.90;;;;;;5119520;28;20514;-77
2023/06/02 08:41:38;;;;;;;4.28;3.88;;;24.20;99.90;;;;;;5119941;28;20267;-78
2023/06/02 08:44:05;;;;;;;5.35;4.10;;;24.20;99.90;;;;;;5105425;28;20192;-75
2023/06/02 08:46:32;;;;;;;5.30;4.53;;;24.10;99.90;;;;;;5102534;28;20197;-75
2023/06/02 08:49:01;;;;;;;4.10;3.72;;;24.10;99.90;;;;;;5099541;28;20204;-75
2023/06/02 08:51:32;;;;;;;4.88;3.95;;;24.20;99.90;;;;;;5098695;28;20670;-75
2023/06/02 08:54:00;;;;;;;7.88;4.43;;;24.20;99.90;;;;;;5093351;28;20690;-75
2023/06/02 08:56:27;;;;;;;3.95;3.65;;;24.20;99.90;;;;;;5102763;28;20216;-74
2023/06/02 08:58:54;;;;;;;4.13;3.80;;;24.00;99.90;;;;;;5094617;28;20694;-74
2023/06/02 09:01:21;;;;;;;4.10;3.70;;;23.90;99.90;;;;;;5100393;28;20260;-76
2023/06/02 09:03:48;;;;;;;4.00;3.70;;;23.90;99.90;;;;;;5096858;28;20206;-75
2023/06/02 09:06:21;;;;;;;4.28;3.92;;;24.10;99.90;;;;;;5101250;27;20207;-77
2023/06/02 09:08:57;;;;;;;4.20;3.80;;;24.20;99.90;;;;;;5093260;28;20207;-76
2023/06/02 09:11:25;;;;;;;7.18;4.50;;;24.30;99.90;;;;;;5094281;28;20217;-77
2023/06/02 09:13:53;;;;;;;5.45;3.80;;;24.30;99.90;;;;;;5094513;28;20305;-77
2023/06/02 09:16:21;;;;;;;4.47;4.07;;;24.40;99.90;;;;;;5093147;28;20217;-77
2023/06/02 09:18:59;;;;;;;4.10;3.70;;;24.60;99.90;;;;;;5087658;28;20205;-77
2023/06/02 09:21:28;;;;;;;4.03;3.70;;;24.70;99.90;;;;;;5094314;28;20232;-77
2023/06/02 09:23:58;;;;;;;4.32;3.92;;;24.80;99.90;;;;;;5094101;28;20314;-77
2023/06/02 09:26:26;;;;;;;4.15;3.83;;;25.00;99.90;;;;;;5092755;28;20249;-77
2023/06/02 09:29:09;;;;;;;4.38;3.97;;;25.10;99.90;;;;;;5096668;28;20497;-77
2023/06/02 09:31:47;;;;;;;4.38;3.95;;;25.10;99.90;;;;;;5087850;27;20308;-78
2023/06/02 09:34:15;;;;;;;4.75;4.13;;;25.10;99.90;;;;;;5092112;28;20319;-77
2023/06/02 09:36:42;;;;;;;4.20;3.85;;;25.20;99.90;;;;;;5095388;28;20217;-77
2023/06/02 09:39:11;;;;;;;4.32;3.92;;;25.40;99.90;;;;;;5100539;28;20535;-78
2023/06/02 09:41:39;;;;;;;3.75;3.45;;;25.40;99.90;;;;;;5092604;28;20248;-77
2023/06/02 09:44:13;;;;;;;4.07;3.78;;;25.50;99.90;;;;;;5092355;28;20685;-78
2023/06/02 09:46:41;;;;;;;3.72;3.30;;;25.70;99.90;;;;;;5094647;28;20192;-78
2023/06/02 09:49:08;;;;;;;4.35;3.88;;;25.70;99.90;;;;;;5099933;28;20588;-78
2023/06/02 09:51:37;;;;;;;4.05;3.75;;;25.70;99.90;;;;;;5094929;28;20726;-76
2023/06/02 09:54:04;;;;;;;3.85;3.55;;;25.80;99.90;;;;;;5092456;28;20285;-77
2023/06/02 09:56:36;;;;;;;3.97;3.60;;;25.90;99.90;;;;;;5096305;28;20277;-77
2023/06/02 09:59:05;;;;;;;3.88;3.47;;;26.00;99.90;;;;;;5091814;28;20374;-77
2023/06/02 10:01:33;;;;;;;3.97;3.67;;;26.00;99.90;;;;;;5093681;28;20273;-78
2023/06/02 10:04:00;;;;;;;3.78;3.47;;;26.20;99.90;;;;;;5092981;28;20220;-77
2023/06/02 10:06:49;;;;;;;3.75;3.45;;;26.40;99.90;;;;;;5096795;27;20232;-77
2023/06/02 10:09:28;;;;;;;4.05;3.75;;;26.70;99.90;;;;;;5100945;27;20296;-78
2023/06/02 10:12:20;;;;;;;4.15;3.83;;;26.80;99.90;;;;;;5091465;28;20274;-80
2023/06/02 10:15:22;;;;;;;4.30;3.90;;;26.70;99.90;;;;;;5095185;28;20197;-77
2023/06/02 10:17:59;;;;;;;3.97;3.65;;;26.70;99.90;;;;;;5062798;28;20225;-78
2023/06/02 10:20:31;;;;;;;3.80;3.50;;;26.80;99.90;;;;;;5099339;28;20225;-78
2023/06/02 10:23:11;;;;;;;4.60;4.20;;;26.80;99.90;;;;;;5094830;28;20202;-78
2023/06/02 10:25:53;;;;;;;3.85;3.50;;;26.90;99.90;;;;;;5102371;28;20556;-79
2023/06/02 10:28:22;;;;;;;4.35;3.95;;;27.00;99.90;;;;;;5110546;28;20554;-79
2023/06/02 10:30:49;;;;;;;3.38;3.10;;;27.00;99.90;;;;;;5095861;28;20222;-77
2023/06/02 10:33:36;;;;;;;3.60;3.30;;;27.00;99.90;;;;;;5095493;28;20233;-79
2023/06/02 10:36:03;;;;;;;3.92;3.63;;;27.20;99.90;;;;;;5095791;28;20266;-80
2023/06/02 10:38:32;;;;;;;3.67;3.38;;;27.20;99.90;;;;;;5092682;28;20240;-76
2023/06/02 10:40:59;;;;;;;3.38;3.08;;;27.10;99.90;;;;;;5096575;28;20943;-79
2023/06/02 10:43:28;;;;;;;4.38;3.53;;;27.30;99.90;;;;;;5092914;27;20198;-80
2023/06/02 10:46:20;;;;;;;4.82;3.13;;;27.70;99.90;;;;;;5095164;28;20230;-78
2023/06/02 10:48:47;;;;;;;3.38;3.15;;;27.70;99.90;;;;;;5096527;28;20200;-79
2023/06/02 10:51:15;;;;;;;3.38;3.17;;;27.70;99.90;;;;;;5101868;28;20229;-78
2023/06/02 10:54:13;;;;;;;3.53;3.22;;;27.70;99.90;;;;;;5097953;28;20273;-78
2023/06/02 10:56:43;;;;;;;3.53;3.22;;;27.70;99.90;;;;;;5091112;28;20871;-79
2023/06/02 10:59:31;;;;;;;4.07;3.67;;;27.80;99.90;;;;;;5096344;28;20244;-80
2023/06/02 11:01:58;;;;;;;4.97;3.53;;;27.80;99.90;;;;;;5092573;28;20197;-79
2023/06/02 11:04:31;;;;;;;3.53;3.22;;;27.80;99.90;;;;;;5094789;28;20288;-79
2023/06/02 11:07:21;;;;;;;3.58;3.28;;;27.90;99.90;;;;;;5087747;28;20229;-80
2023/06/02 11:09:50;;;;;;;3.67;3.28;;;28.00;99.90;;;;;;5097867;28;20669;-79
2023/06/02 11:12:17;;;;;;;4.35;4.00;;;28.00;99.90;;;;;;5088118;28;20205;-78
2023/06/02 11:15:19;;;;;;;3.20;3.00;;;28.00;99.90;;;;;;5093641;28;20229;-79
2023/06/02 11:17:50;;;;;;;3.58;3.28;;;28.00;99.90;;;;;;5092099;28;20223;-79
2023/06/02 11:20:18;;;;;;;3.50;3.20;;;28.10;99.90;;;;;;5117748;27;20266;-80
2023/06/02 11:22:46;;;;;;;3.97;3.67;;;28.50;99.90;;;;;;5109097;28;20198;-79
2023/06/02 11:25:16;;;;;;;3.40;3.10;;;28.50;99.90;;;;;;5109581;28;20212;-79
2023/06/02 11:27:45;;;;;;;3.83;3.50;;;28.40;99.90;;;;;;5097818;28;20192;-79
2023/06/02 11:30:15;;;;;;;4.15;3.70;;;28.30;99.90;;;;;;5096429;28;20758;-79
2023/06/02 11:32:46;;;;;;;3.55;3.25;;;28.10;99.90;;;;;;5111800;22;20220;-74
2023/06/02 11:35:13;;;;;;;3.65;3.35;;;28.00;99.90;;;;;;5067648;28;20200;-72
2023/06/02 11:37:43;;;;;;;4.40;3.70;;;28.10;99.90;;;;;;5082732;28;20205;-71
2023/06/02 11:40:12;;;;;;;3.80;3.50;;;28.10;99.90;;;;;;5081049;28;20238;-72
2023/06/02 11:42:42;;;;;;;3.13;2.90;;;28.00;99.90;;;;;;5080965;28;20296;-72
2023/06/02 11:45:21;;;;;;;4.22;3.38;;;28.40;99.90;;;;;;5082626;28;20201;-73
2023/06/02 11:48:01;;;;;;;4.00;3.60;;;28.50;99.90;;;;;;5080728;28;20285;-71
2023/06/02 11:50:28;;;;;;;3.40;3.10;;;28.50;99.90;;;;;;5074078;28;20432;-72
2023/06/02 11:52:55;;;;;;;4.10;3.70;;;28.40;99.90;;;;;;5054646;28;20642;-72
2023/06/02 11:55:27;;;;;;;4.32;3.85;;;28.30;99.90;;;;;;5045231;28;20208;-72
2023/06/02 11:57:54;;;;;;;3.22;3.03;;;28.30;99.90;;;;;;5074564;28;20796;-72
2023/06/02 12:00:22;;;;;;;3.47;3.17;;;28.30;99.90;;;;;;5074297;28;20246;-72
2023/06/02 12:02:53;;;;;;;3.15;2.95;;;28.30;99.90;;;;;;5062777;28;20218;-72
2023/06/02 12:05:34;;;;;;;3.63;3.33;;;28.30;99.90;;;;;;5079656;28;20670;-72
2023/06/02 12:08:12;;;;;;;3.70;3.40;;;28.40;99.90;;;;;;5075828;28;20201;-72
2023/06/02 12:10:40;;;;;;;3.42;2.97;;;28.50;99.90;;;;;;5058296;28;20221;-71
2023/06/02 12:13:07;;;;;;;4.35;3.38;;;28.60;99.90;;;;;;5058811;28;20222;-73
2023/06/02 12:15:35;;;;;;;4.07;3.50;;;28.60;99.90;;;;;;5057751;28;20733;-71
2023/06/02 12:18:06;;;;;;;3.55;3.25;;;28.30;99.90;;;;;;5072080;28;20217;-72
2023/06/02 12:20:41;;;;;;;3.53;3.22;;;28.10;99.90;;;;;;5063410;28;20647;-71
2023/06/02 12:23:09;;;;;;;3.22;2.92;;;28.30;99.90;;;;;;5074313;28;20304;-71
2023/06/02 12:25:37;;;;;;;3.55;3.25;;;28.60;99.90;;;;;;5074446;28;20226;-72
2023/06/02 12:28:22;;;;;;;3.58;3.28;;;28.80;99.90;;;;;;5074541;28;20663;-74
2023/06/02 12:30:49;;;;;;;3.90;3.42;;;28.90;99.90;;;;;;5077578;28;20288;-73
2023/06/02 12:33:18;;;;;;;3.67;3.38;;;28.70;99.90;;;;;;5074356;28;20228;-73
2023/06/02 12:35:45;;;;;;;3.50;3.20;;;28.60;99.90;;;;;;5076354;28;20870;-75
2023/06/02 12:38:12;;;;;;;3.78;3.47;;;28.50;99.90;;;;;;5079799;28;20319;-73
2023/06/02 12:40:40;;;;;;;4.20;3.80;;;28.60;99.90;;;;;;5081982;28;20810;-74
2023/06/02 12:43:07;;;;;;;3.38;3.08;;;28.60;99.90;;;;;;5100428;22;20221;-77
2023/06/02 12:45:35;;;;;;;5.88;3.08;;;28.50;99.90;;;;;;5097530;28;20219;-76
2023/06/02 12:48:02;;;;;;;3.63;3.17;;;28.40;99.90;;;;;;5096511;27;20226;-77
2023/06/02 12:50:31;;;;;;;3.50;3.20;;;28.30;99.90;;;;;;5092953;28;20201;-77
2023/06/02 12:52:58;;;;;;;4.05;3.65;;;28.30;99.90;;;;;;5089970;28;21005;-76
2023/06/02 12:55:26;;;;;;;3.90;3.60;;;28.20;99.90;;;;;;5097679;27;22638;-76
2023/06/02 12:57:53;;;;;;;3.60;3.30;;;28.10;99.90;;;;;;5091865;28;20267;-77